Time;durP1;ratioP1;P1;durP2;ratioP2;P2;SDS_P1;SDS_P2;PMS_P1;PMS_P2;Temp;Humidity;BMP_temperature;BMP_pressure;BME280_temperature;BME280_humidity;BME280_pressure;Samples;Min_cycle;Max_cycle;Signal;HPM_P1;HPM_P2
2023/08/10 00:00:37;;;;;;;2.30;1.80;;;16.10;99.90;;;;;;4209604;28;20411;-61
2023/08/10 00:02:39;;;;;;;4.25;1.40;;;16.10;99.90;;;;;;4209192;28;20032;-63
2023/08/10 00:04:40;;;;;;;3.45;1.40;;;16.00;99.90;;;;;;4210854;28;20057;-61
2023/08/10 00:06:41;;;;;;;3.10;1.65;;;16.00;99.90;;;;;;4209423;28;20048;-62
2023/08/10 00:08:43;;;;;;;2.72;1.33;;;16.00;99.90;;;;;;4209579;28;20113;-61
2023/08/10 00:10:50;;;;;;;2.97;1.77;;;15.90;99.90;;;;;;4209455;28;20032;-61
2023/08/10 00:12:51;;;;;;;3.40;1.23;;;15.90;99.90;;;;;;4210405;28;20032;-60
2023/08/10 00:14:52;;;;;;;4.95;1.88;;;15.90;99.90;;;;;;4209126;28;20139;-61
2023/08/10 00:16:53;;;;;;;5.43;1.45;;;15.90;99.90;;;;;;4210905;28;21361;-61
2023/08/10 00:18:55;;;;;;;1.98;1.45;;;15.90;99.90;;;;;;4208922;28;20403;-62
2023/08/10 00:20:56;;;;;;;3.90;1.45;;;15.90;99.90;;;;;;4210745;28;20081;-61
2023/08/10 00:22:57;;;;;;;4.30;1.42;;;15.80;99.90;;;;;;4209008;28;20036;-63
2023/08/10 00:24:58;;;;;;;4.40;1.83;;;15.80;99.90;;;;;;4209530;28;20074;-66
2023/08/10 00:26:59;;;;;;;3.22;1.73;;;15.80;99.90;;;;;;4209631;28;20522;-60
2023/08/10 00:29:00;;;;;;;2.03;1.63;;;15.80;99.90;;;;;;4209207;28;20446;-61
2023/08/10 00:31:03;;;;;;;3.83;1.70;;;15.90;99.90;;;;;;4208976;28;20036;-62
2023/08/10 00:33:04;;;;;;;2.17;1.20;;;15.90;99.90;;;;;;4209087;28;20483;-62
2023/08/10 00:35:05;;;;;;;4.13;1.83;;;15.90;99.90;;;;;;4207496;28;20053;-60
2023/08/10 00:37:06;;;;;;;9.27;1.77;;;15.80;99.90;;;;;;4208766;28;20040;-61
2023/08/10 00:39:08;;;;;;;2.78;1.55;;;15.80;99.90;;;;;;4209731;28;20108;-60
2023/08/10 00:41:09;;;;;;;3.22;1.35;;;15.80;99.90;;;;;;4208231;28;20097;-65
2023/08/10 00:43:10;;;;;;;2.20;1.33;;;15.80;99.90;;;;;;4209745;28;20089;-61
2023/08/10 00:45:11;;;;;;;2.03;1.52;;;15.80;99.90;;;;;;4209264;28;20020;-60
2023/08/10 00:47:14;;;;;;;2.63;1.23;;;15.80;99.90;;;;;;4209801;28;20503;-62
2023/08/10 00:49:15;;;;;;;2.05;1.40;;;15.80;99.90;;;;;;4208712;28;20032;-61
2023/08/10 00:51:16;;;;;;;3.53;1.45;;;15.80;99.90;;;;;;4210961;28;20036;-60
2023/08/10 00:53:18;;;;;;;1.52;1.23;;;15.80;99.90;;;;;;4212516;28;20588;-60
2023/08/10 00:55:19;;;;;;;2.65;1.38;;;15.70;99.90;;;;;;4213481;28;20028;-60
2023/08/10 00:57:21;;;;;;;3.85;1.25;;;15.70;99.90;;;;;;4212679;28;20406;-62
2023/08/10 00:59:22;;;;;;;3.13;1.30;;;15.70;99.90;;;;;;4213624;28;20085;-62
2023/08/10 01:01:24;;;;;;;1.88;1.27;;;15.70;99.90;;;;;;4211930;28;20025;-60
2023/08/10 01:03:25;;;;;;;4.38;1.70;;;15.70;99.90;;;;;;4212810;28;20028;-61
2023/08/10 01:05:33;;;;;;;1.50;1.30;;;15.70;99.90;;;;;;4213028;28;20101;-62
2023/08/10 01:08:00;;;;;;;4.65;1.67;;;15.70;99.90;;;;;;4211975;28;20085;-60
2023/08/10 01:10:16;;;;;;;3.22;1.30;;;15.80;99.90;;;;;;4206572;28;20090;-61
2023/08/10 01:12:44;;;;;;;1.55;1.25;;;15.80;99.90;;;;;;4212357;28;20082;-61
2023/08/10 01:15:02;;;;;;;3.10;1.40;;;15.80;99.90;;;;;;4211747;28;20036;-61
2023/08/10 01:17:09;;;;;;;4.18;1.50;;;15.80;99.90;;;;;;4212835;28;20093;-60
2023/08/10 01:19:35;;;;;;;2.40;1.45;;;15.70;99.90;;;;;;4211592;28;20040;-60
2023/08/10 01:21:53;;;;;;;3.58;2.25;;;15.60;99.90;;;;;;4212647;28;20097;-61
2023/08/10 01:23:58;;;;;;;7.72;3.30;;;15.50;99.90;;;;;;4211904;28;20049;-61
2023/08/10 01:26:00;;;;;;;3.67;2.53;;;15.50;99.90;;;;;;4213114;28;20085;-61
2023/08/10 01:28:02;;;;;;;3.33;2.35;;;15.50;99.90;;;;;;4212128;28;20649;-61
2023/08/10 01:30:04;;;;;;;4.22;2.20;;;15.50;99.90;;;;;;4212181;28;20036;-61
2023/08/10 01:32:12;;;;;;;6.65;2.85;;;15.60;99.90;;;;;;4211636;28;20036;-58
2023/08/10 01:34:13;;;;;;;3.03;1.65;;;15.60;99.90;;;;;;4213131;28;20028;-61
2023/08/10 01:36:14;;;;;;;1.15;0.93;;;15.60;99.90;;;;;;4211262;28;20109;-64
2023/08/10 01:38:15;;;;;;;2.90;1.20;;;15.70;99.90;;;;;;4211249;28;20085;-63
2023/08/10 01:40:17;;;;;;;2.65;1.38;;;15.70;99.90;;;;;;4211897;28;20024;-63
2023/08/10 01:42:18;;;;;;;6.13;1.60;;;15.70;99.90;;;;;;4212559;28;20082;-66
2023/08/10 01:44:19;;;;;;;2.97;1.20;;;15.70;99.90;;;;;;4211144;28;20073;-58
2023/08/10 01:46:23;;;;;;;4.47;1.83;;;15.70;99.90;;;;;;4211842;28;20040;-60
2023/08/10 01:48:32;;;;;;;2.25;1.40;;;15.70;99.90;;;;;;4211793;28;20039;-62
2023/08/10 01:50:39;;;;;;;3.53;1.33;;;15.70;99.90;;;;;;4210846;28;20028;-60
2023/08/10 01:52:50;;;;;;;3.55;1.70;;;15.70;99.90;;;;;;4212087;28;20044;-61
2023/08/10 01:54:52;;;;;;;3.00;1.30;;;15.70;99.90;;;;;;4211492;28;20090;-62
2023/08/10 01:56:53;;;;;;;4.18;1.77;;;15.70;99.90;;;;;;4212809;28;20426;-65
2023/08/10 01:58:55;;;;;;;3.50;1.55;;;15.80;99.90;;;;;;4210583;28;20097;-59
2023/08/10 02:00:56;;;;;;;4.50;1.70;;;15.70;99.90;;;;;;4211804;28;20097;-62
2023/08/10 02:02:57;;;;;;;1.85;1.23;;;15.70;99.90;;;;;;4210658;28;20054;-61
2023/08/10 02:04:58;;;;;;;4.03;1.52;;;15.70;99.90;;;;;;4211846;28;20389;-63
2023/08/10 02:07:01;;;;;;;3.25;1.75;;;15.60;99.90;;;;;;4211007;28;20059;-61
2023/08/10 02:09:02;;;;;;;4.05;2.08;;;15.50;99.90;;;;;;4211684;28;20086;-65
2023/08/10 02:11:04;;;;;;;4.43;1.80;;;15.50;99.90;;;;;;4210195;28;20089;-60
2023/08/10 02:13:05;;;;;;;4.07;2.30;;;15.30;99.90;;;;;;4212098;28;20044;-62
2023/08/10 02:15:06;;;;;;;5.97;2.08;;;15.30;99.90;;;;;;4193454;28;20468;-61
2023/08/10 02:17:08;;;;;;;5.22;2.20;;;15.20;99.90;;;;;;4212358;28;20468;-60
2023/08/10 02:19:09;;;;;;;4.38;1.80;;;15.20;99.90;;;;;;4210410;28;20044;-64
2023/08/10 02:21:11;;;;;;;5.95;1.90;;;15.20;99.90;;;;;;4200263;28;20093;-66
2023/08/10 02:23:12;;;;;;;5.50;2.05;;;15.20;99.90;;;;;;4211516;28;20016;-67
2023/08/10 02:25:13;;;;;;;3.72;1.52;;;15.20;99.90;;;;;;4210209;28;20808;-61
2023/08/10 02:27:14;;;;;;;3.33;1.60;;;15.30;99.90;;;;;;4211442;28;20040;-61
2023/08/10 02:29:15;;;;;;;1.95;1.40;;;15.30;99.90;;;;;;4210362;28;20576;-67
2023/08/10 02:31:17;;;;;;;3.67;2.00;;;15.20;99.90;;;;;;4193643;28;20153;-62
2023/08/10 02:33:18;;;;;;;5.32;1.95;;;15.20;99.90;;;;;;4210192;28;20105;-62
2023/08/10 02:35:19;;;;;;;2.40;1.73;;;15.20;99.90;;;;;;4212290;28;20356;-65
2023/08/10 02:37:20;;;;;;;2.83;1.80;;;15.20;99.90;;;;;;4211185;28;20472;-60
2023/08/10 02:39:21;;;;;;;2.83;2.00;;;15.20;99.90;;;;;;4211058;28;20081;-62
2023/08/10 02:41:22;;;;;;;3.20;1.92;;;15.20;99.90;;;;;;4209120;28;20155;-63
2023/08/10 02:43:24;;;;;;;3.30;1.85;;;15.30;99.90;;;;;;4211208;28;20101;-62
2023/08/10 02:45:25;;;;;;;2.17;1.40;;;15.30;99.90;;;;;;4210947;28;20028;-63
2023/08/10 02:47:26;;;;;;;3.65;1.98;;;15.30;99.90;;;;;;4211746;28;20032;-60
2023/08/10 02:49:27;;;;;;;2.20;1.60;;;15.30;99.90;;;;;;4209951;28;20036;-62
2023/08/10 02:51:28;;;;;;;4.00;2.05;;;15.30;99.90;;;;;;4211531;28;20349;-60
2023/08/10 02:53:30;;;;;;;4.32;2.28;;;15.20;99.90;;;;;;4211227;28;20024;-61
2023/08/10 02:55:31;;;;;;;3.20;1.55;;;15.20;99.90;;;;;;4210420;28;20460;-63
2023/08/10 02:57:32;;;;;;;2.83;2.35;;;15.20;99.90;;;;;;4210610;28;20394;-62
2023/08/10 02:59:33;;;;;;;9.95;3.55;;;15.10;99.90;;;;;;4210731;28;20024;-61
2023/08/10 03:01:34;;;;;;;7.25;3.17;;;15.00;99.90;;;;;;4210462;28;20498;-60
2023/08/10 03:03:35;;;;;;;5.57;3.28;;;14.90;99.90;;;;;;4210040;28;20035;-61
2023/08/10 03:05:37;;;;;;;3.35;2.50;;;14.80;99.90;;;;;;4211393;28;20036;-60
2023/08/10 03:07:38;;;;;;;4.15;2.15;;;14.70;99.90;;;;;;4210395;28;20097;-64
2023/08/10 03:09:41;;;;;;;2.20;1.98;;;14.70;99.90;;;;;;4211347;28;20189;-61
2023/08/10 03:11:42;;;;;;;5.95;2.08;;;14.60;99.90;;;;;;4210029;28;20898;-60
2023/08/10 03:13:43;;;;;;;3.63;1.98;;;14.60;99.90;;;;;;4210691;28;20363;-62
2023/08/10 03:15:44;;;;;;;3.65;1.88;;;14.60;99.90;;;;;;4210392;28;20036;-63
2023/08/10 03:17:45;;;;;;;3.95;2.00;;;14.60;99.90;;;;;;4210623;28;20310;-61
2023/08/10 03:19:48;;;;;;;5.63;3.03;;;14.60;99.90;;;;;;4210274;28;20032;-60
2023/08/10 03:21:49;;;;;;;6.80;3.78;;;14.70;99.90;;;;;;4210469;28;20052;-60
2023/08/10 03:23:50;;;;;;;7.63;3.33;;;14.80;99.90;;;;;;4209685;28;20040;-61
2023/08/10 03:25:51;;;;;;;5.80;2.95;;;14.90;99.90;;;;;;4210418;28;20078;-60
2023/08/10 03:27:52;;;;;;;6.07;2.97;;;14.90;99.90;;;;;;4209136;28;20463;-60
2023/08/10 03:29:53;;;;;;;12.77;2.97;;;14.90;99.90;;;;;;4209356;28;20043;-60
2023/08/10 03:31:54;;;;;;;4.18;2.42;;;15.00;99.90;;;;;;4210535;28;20458;-59
2023/08/10 03:33:56;;;;;;;4.00;2.47;;;15.00;99.90;;;;;;4192078;28;20024;-61
2023/08/10 03:35:57;;;;;;;1.77;1.67;;;15.00;99.90;;;;;;4210889;28;20024;-60
2023/08/10 03:37:58;;;;;;;4.10;1.88;;;15.10;99.90;;;;;;4210535;28;20141;-61
2023/08/10 03:39:59;;;;;;;3.55;1.67;;;15.10;99.90;;;;;;4210288;28;20035;-60
2023/08/10 03:42:00;;;;;;;1.85;1.40;;;15.20;99.90;;;;;;4208441;28;20369;-60
2023/08/10 03:44:01;;;;;;;2.97;1.75;;;15.20;99.90;;;;;;4209450;28;20032;-61
2023/08/10 03:46:03;;;;;;;3.30;1.33;;;15.30;99.90;;;;;;4207580;28;20040;-60
2023/08/10 03:48:04;;;;;;;3.97;1.67;;;15.30;99.90;;;;;;4207937;28;20108;-60
2023/08/10 03:50:06;;;;;;;3.70;1.67;;;15.30;99.90;;;;;;4200291;28;20086;-59
2023/08/10 03:52:07;;;;;;;3.92;1.30;;;15.40;99.90;;;;;;4209809;28;20537;-60
2023/08/10 03:54:10;;;;;;;1.85;1.75;;;15.40;99.90;;;;;;4209393;28;20044;-59
2023/08/10 03:56:11;;;;;;;2.75;1.35;;;15.40;99.90;;;;;;4209389;28;20063;-63
2023/08/10 03:58:12;;;;;;;3.88;1.90;;;15.40;99.90;;;;;;4210081;28;20438;-61
2023/08/10 04:00:14;;;;;;;1.52;1.25;;;15.40;99.90;;;;;;4224137;28;20036;-60
2023/08/10 04:02:15;;;;;;;2.55;1.88;;;15.40;99.90;;;;;;4193623;28;20070;-59
2023/08/10 04:04:16;;;;;;;2.22;1.80;;;15.40;99.90;;;;;;4204078;28;20036;-56
2023/08/10 04:06:17;;;;;;;4.32;2.05;;;15.40;99.90;;;;;;4210935;28;20089;-60
2023/08/10 04:08:18;;;;;;;7.38;1.88;;;15.40;99.90;;;;;;4208261;28;20052;-60
2023/08/10 04:10:19;;;;;;;2.45;1.65;;;15.40;99.90;;;;;;4210258;28;20093;-61
2023/08/10 04:12:21;;;;;;;4.65;1.98;;;15.40;99.90;;;;;;4209377;28;20108;-63
2023/08/10 04:14:22;;;;;;;1.90;1.63;;;15.30;99.90;;;;;;4209978;28;20451;-60
2023/08/10 04:16:24;;;;;;;2.55;1.77;;;15.30;99.90;;;;;;4190237;28;20063;-61
2023/08/10 04:18:25;;;;;;;1.95;1.50;;;15.30;99.90;;;;;;4205744;28;20048;-64
2023/08/10 04:20:26;;;;;;;4.07;2.20;;;15.30;99.90;;;;;;4209199;28;20054;-62
2023/08/10 04:22:27;;;;;;;5.40;2.47;;;15.30;99.90;;;;;;4210180;28;20024;-61
2023/08/10 04:24:28;;;;;;;4.88;2.90;;;15.30;99.90;;;;;;4190912;28;20054;-62
2023/08/10 04:26:30;;;;;;;5.53;2.75;;;15.30;99.90;;;;;;4212098;28;20456;-63
2023/08/10 04:28:32;;;;;;;6.43;2.92;;;15.30;99.90;;;;;;4212169;28;20117;-64
2023/08/10 04:30:33;;;;;;;5.50;2.88;;;15.30;99.90;;;;;;4213284;28;20145;-62
2023/08/10 04:32:35;;;;;;;3.20;2.45;;;15.30;99.90;;;;;;4212197;28;20477;-62
2023/08/10 04:34:36;;;;;;;4.32;2.50;;;15.40;99.90;;;;;;4212110;28;20111;-60
2023/08/10 04:36:37;;;;;;;5.28;2.80;;;15.40;99.90;;;;;;4212866;28;20085;-63
2023/08/10 04:38:38;;;;;;;7.20;3.42;;;15.40;99.90;;;;;;4211900;28;20048;-60
2023/08/10 04:40:41;;;;;;;6.75;3.50;;;15.50;99.90;;;;;;4212606;28;20036;-63
2023/08/10 04:42:42;;;;;;;9.02;3.17;;;15.60;99.90;;;;;;4193420;28;20053;-63
2023/08/10 04:44:43;;;;;;;7.97;3.60;;;15.60;99.90;;;;;;4213393;28;20048;-59
2023/08/10 04:46:44;;;;;;;5.82;2.67;;;15.70;99.90;;;;;;4212116;28;20085;-61
2023/08/10 04:48:45;;;;;;;4.47;2.38;;;15.70;99.90;;;;;;4213083;28;20077;-64
2023/08/10 04:50:46;;;;;;;3.95;2.40;;;15.80;99.90;;;;;;4211945;28;20509;-64
2023/08/10 04:52:47;;;;;;;8.27;2.08;;;15.80;99.90;;;;;;4212678;28;20051;-64
2023/08/10 04:54:48;;;;;;;2.60;1.58;;;15.90;99.90;;;;;;4212421;28;20368;-61
2023/08/10 04:56:49;;;;;;;3.88;1.70;;;15.90;99.90;;;;;;4212471;28;20089;-60
2023/08/10 04:58:51;;;;;;;3.10;1.80;;;16.00;99.90;;;;;;4212391;28;20085;-66
2023/08/10 05:00:52;;;;;;;4.53;1.73;;;16.00;99.90;;;;;;4212187;28;20085;-64
2023/08/10 05:02:53;;;;;;;8.35;1.88;;;16.10;99.90;;;;;;4211453;28;20090;-65
2023/08/10 05:04:56;;;;;;;12.45;4.57;;;16.20;99.90;;;;;;4211073;28;20040;-64
2023/08/10 05:06:57;;;;;;;7.15;2.90;;;16.10;99.90;;;;;;4211874;28;20429;-62
2023/08/10 05:08:58;;;;;;;7.18;1.98;;;16.20;99.90;;;;;;4209607;28;20093;-62
2023/08/10 05:10:59;;;;;;;7.07;2.40;;;16.20;99.90;;;;;;4209088;28;20028;-66
2023/08/10 05:13:00;;;;;;;11.55;3.00;;;16.20;99.90;;;;;;4206458;28;20180;-62
2023/08/10 05:15:01;;;;;;;11.82;3.53;;;16.30;99.90;;;;;;4207035;28;20040;-62
2023/08/10 05:17:04;;;;;;;7.38;3.00;;;16.30;99.90;;;;;;4206087;28;20035;-63
2023/08/10 05:19:05;;;;;;;9.50;2.75;;;16.40;99.90;;;;;;4211667;28;20020;-64
2023/08/10 05:21:06;;;;;;;3.70;1.98;;;16.40;99.90;;;;;;4211618;28;20032;-60
2023/08/10 05:23:07;;;;;;;2.90;1.70;;;16.50;99.90;;;;;;4213208;28;20020;-63
2023/08/10 05:25:10;;;;;;;2.67;1.92;;;16.50;99.90;;;;;;4210477;28;20020;-60
2023/08/10 05:27:11;;;;;;;4.90;2.70;;;16.40;99.90;;;;;;4211991;28;20514;-61
2023/08/10 05:29:12;;;;;;;3.47;2.85;;;16.40;99.90;;;;;;4211351;28;20040;-64
2023/08/10 05:31:13;;;;;;;4.20;3.38;;;16.30;99.90;;;;;;4212613;28;20024;-65
2023/08/10 05:33:14;;;;;;;4.55;2.90;;;16.40;99.90;;;;;;4210708;28;20031;-63
2023/08/10 05:35:15;;;;;;;3.97;2.95;;;16.40;99.90;;;;;;4212392;28;20032;-59
2023/08/10 05:37:17;;;;;;;4.63;3.33;;;16.40;99.90;;;;;;4210624;28;20077;-61
2023/08/10 05:39:18;;;;;;;6.85;3.85;;;16.30;99.90;;;;;;4211471;28;20446;-63
2023/08/10 05:41:19;;;;;;;6.70;3.95;;;16.20;99.90;;;;;;4212241;28;20837;-62
2023/08/10 05:43:20;;;;;;;8.70;3.75;;;16.20;99.90;;;;;;4211850;28;20066;-60
2023/08/10 05:45:21;;;;;;;6.43;3.83;;;16.20;99.90;;;;;;4212309;28;20081;-63
2023/08/10 05:47:22;;;;;;;7.65;4.50;;;16.20;99.90;;;;;;4211743;28;20067;-68
2023/08/10 05:49:24;;;;;;;6.88;4.40;;;16.20;99.90;;;;;;4211709;28;20473;-61
2023/08/10 05:51:25;;;;;;;8.90;4.70;;;16.20;99.90;;;;;;4211742;28;20422;-60
2023/08/10 05:53:26;;;;;;;9.00;6.13;;;16.20;99.90;;;;;;4212067;28;20058;-60
2023/08/10 05:55:27;;;;;;;7.13;4.78;;;16.20;99.90;;;;;;4210397;28;20081;-60
2023/08/10 05:57:29;;;;;;;8.27;4.80;;;16.20;99.90;;;;;;4210770;28;20112;-63
2023/08/10 05:59:30;;;;;;;6.85;4.50;;;16.30;99.90;;;;;;4210155;28;20028;-60
2023/08/10 06:01:31;;;;;;;8.60;5.53;;;16.30;99.90;;;;;;4212169;28;20455;-61
2023/08/10 06:03:32;;;;;;;7.70;4.85;;;16.30;99.90;;;;;;4211035;28;20121;-61
2023/08/10 06:05:34;;;;;;;8.02;3.85;;;16.40;99.90;;;;;;4211630;28;20032;-64
2023/08/10 06:07:36;;;;;;;9.73;4.63;;;16.50;99.90;;;;;;4210564;28;20110;-61
2023/08/10 06:09:37;;;;;;;7.45;3.90;;;16.50;99.90;;;;;;4210545;28;20044;-61
2023/08/10 06:11:39;;;;;;;6.32;3.67;;;16.60;99.90;;;;;;4210248;28;20499;-65
2023/08/10 06:13:41;;;;;;;8.15;3.70;;;16.50;99.90;;;;;;4209915;28;20040;-60
2023/08/10 06:15:43;;;;;;;7.03;3.30;;;16.60;99.90;;;;;;4211459;28;20089;-63
2023/08/10 06:17:44;;;;;;;9.20;4.15;;;16.60;99.90;;;;;;4210287;28;20137;-61
2023/08/10 06:19:51;;;;;;;4.85;3.20;;;16.60;99.90;;;;;;4211295;28;20047;-67
2023/08/10 06:21:52;;;;;;;6.47;2.88;;;16.60;99.90;;;;;;4210592;28;20040;-67
2023/08/10 06:23:53;;;;;;;6.03;2.50;;;16.70;99.90;;;;;;4211501;28;20506;-66
2023/08/10 06:25:55;;;;;;;5.13;2.40;;;16.70;99.90;;;;;;4210183;28;20036;-61
2023/08/10 06:27:57;;;;;;;5.60;3.10;;;16.80;99.90;;;;;;4211679;28;20039;-61
2023/08/10 06:29:58;;;;;;;4.40;2.08;;;16.80;99.90;;;;;;4210686;28;20032;-67
2023/08/10 06:32:00;;;;;;;5.63;2.08;;;16.90;99.90;;;;;;4211931;28;20065;-67
2023/08/10 06:34:05;;;;;;;3.70;2.17;;;16.90;99.90;;;;;;4210576;28;20048;-64
2023/08/10 06:36:07;;;;;;;4.72;2.08;;;17.00;99.90;;;;;;4211590;28;20086;-62
2023/08/10 06:38:08;;;;;;;5.97;2.75;;;17.10;99.90;;;;;;4211085;28;20345;-61
2023/08/10 06:40:09;;;;;;;2.38;1.98;;;17.10;99.90;;;;;;4210674;28;20048;-59
2023/08/10 06:42:10;;;;;;;4.00;2.50;;;17.20;99.90;;;;;;4209516;28;20561;-61
2023/08/10 06:44:12;;;;;;;5.45;1.92;;;17.20;99.90;;;;;;4210477;28;20097;-65
2023/08/10 06:46:13;;;;;;;4.63;1.60;;;17.20;99.90;;;;;;4210261;28;20044;-68
2023/08/10 06:48:14;;;;;;;2.40;1.75;;;17.20;99.90;;;;;;4210686;28;20040;-61
2023/08/10 06:50:16;;;;;;;6.30;1.90;;;17.30;99.90;;;;;;4210644;28;20048;-62
2023/08/10 06:52:17;;;;;;;2.78;1.35;;;17.30;99.90;;;;;;4209393;28;20062;-67
2023/08/10 06:54:18;;;;;;;8.95;2.08;;;17.40;99.90;;;;;;4210155;28;20101;-63
2023/08/10 06:56:19;;;;;;;2.05;1.42;;;17.50;99.90;;;;;;4209335;28;20499;-61
2023/08/10 06:58:20;;;;;;;2.25;1.25;;;17.60;99.90;;;;;;4209258;28;20380;-60
2023/08/10 07:00:24;;;;;;;3.63;1.50;;;17.70;99.90;;;;;;4209297;28;20036;-67
2023/08/10 07:02:25;;;;;;;4.03;1.42;;;17.80;99.90;;;;;;4210255;28;20036;-62
2023/08/10 07:04:26;;;;;;;3.90;1.40;;;17.90;99.90;;;;;;4209906;28;20036;-62
2023/08/10 07:06:27;;;;;;;5.68;1.98;;;18.00;99.90;;;;;;4210751;28;20081;-61
2023/08/10 07:08:29;;;;;;;1.90;1.65;;;18.00;99.90;;;;;;4210395;28;20437;-61
2023/08/10 07:10:30;;;;;;;4.70;1.55;;;18.00;99.90;;;;;;4211051;28;20045;-60
2023/08/10 07:12:31;;;;;;;10.15;3.22;;;18.10;99.90;;;;;;4209332;28;20085;-61
2023/08/10 07:14:33;;;;;;;5.82;1.80;;;18.00;99.90;;;;;;4210176;28;20097;-69
2023/08/10 07:16:34;;;;;;;1.70;1.40;;;18.00;99.90;;;;;;4209875;28;20044;-67
2023/08/10 07:18:35;;;;;;;1.88;1.38;;;18.00;99.90;;;;;;4209996;28;20077;-64
2023/08/10 07:20:36;;;;;;;5.85;1.60;;;18.00;99.90;;;;;;4210190;28;20028;-64
2023/08/10 07:22:37;;;;;;;1.27;0.85;;;18.10;99.90;;;;;;4210193;28;20028;-64
2023/08/10 07:24:39;;;;;;;2.17;1.10;;;18.10;99.90;;;;;;4210855;28;20088;-61
2023/08/10 07:26:40;;;;;;;0.80;0.77;;;18.10;99.90;;;;;;4210119;28;20411;-65
2023/08/10 07:28:42;;;;;;;3.53;0.88;;;18.10;99.90;;;;;;4210020;28;20043;-60
2023/08/10 07:30:45;;;;;;;2.13;1.02;;;18.10;99.90;;;;;;4208598;28;20044;-64
2023/08/10 07:32:46;;;;;;;2.20;0.85;;;18.10;99.90;;;;;;4210227;28;20411;-64
2023/08/10 07:34:48;;;;;;;1.58;1.15;;;18.20;99.90;;;;;;4209937;28;20100;-66
2023/08/10 07:36:49;;;;;;;1.75;0.85;;;18.20;99.90;;;;;;4210353;28;20422;-66
2023/08/10 07:38:51;;;;;;;1.25;1.15;;;18.20;99.90;;;;;;4209240;28;20185;-61
2023/08/10 07:40:52;;;;;;;3.30;1.50;;;18.30;99.90;;;;;;4210850;28;20058;-62
2023/08/10 07:42:53;;;;;;;3.08;1.15;;;18.50;99.90;;;;;;4208632;28;20498;-60
2023/08/10 07:44:55;;;;;;;2.20;0.88;;;18.60;99.90;;;;;;4210049;28;20089;-62
2023/08/10 07:46:56;;;;;;;2.22;1.15;;;18.80;99.90;;;;;;4209162;28;20035;-61
2023/08/10 07:48:57;;;;;;;5.18;1.77;;;18.80;99.90;;;;;;4209589;28;20113;-60
2023/08/10 07:50:58;;;;;;;1.50;1.10;;;18.90;99.90;;;;;;4209131;28;20048;-63
2023/08/10 07:53:00;;;;;;;2.70;1.70;;;19.00;99.90;;;;;;4208307;28;20092;-62
2023/08/10 07:55:01;;;;;;;2.88;2.17;;;19.10;99.90;;;;;;4210137;28;20073;-67
2023/08/10 07:57:02;;;;;;;2.00;1.67;;;19.10;99.90;;;;;;4208699;28;20485;-61
2023/08/10 07:59:03;;;;;;;4.88;2.05;;;18.90;99.90;;;;;;4210651;28;20081;-61
2023/08/10 08:01:07;;;;;;;6.90;2.10;;;18.90;99.90;;;;;;4207870;28;20040;-64
2023/08/10 08:03:09;;;;;;;2.13;1.50;;;18.80;99.90;;;;;;4210285;28;20109;-65
2023/08/10 08:05:10;;;;;;;3.45;1.70;;;18.80;99.90;;;;;;4208992;28;20062;-65
2023/08/10 08:07:11;;;;;;;2.20;1.60;;;18.70;99.90;;;;;;4210472;28;20028;-61
2023/08/10 08:09:13;;;;;;;3.08;1.60;;;18.60;99.90;;;;;;4208600;28;20060;-61
2023/08/10 08:11:14;;;;;;;2.67;1.42;;;18.60;99.90;;;;;;4210664;28;20032;-60
2023/08/10 08:13:15;;;;;;;2.38;1.48;;;18.70;99.90;;;;;;4209362;28;20044;-61
2023/08/10 08:15:16;;;;;;;4.28;1.85;;;18.80;99.90;;;;;;4209404;28;20106;-61
2023/08/10 08:17:17;;;;;;;2.33;1.10;;;18.80;99.90;;;;;;4208198;28;20024;-61
2023/08/10 08:19:18;;;;;;;2.47;1.38;;;18.90;99.90;;;;;;4209054;28;20089;-60
2023/08/10 08:21:21;;;;;;;1.85;1.48;;;18.80;99.90;;;;;;4209997;28;20038;-60
2023/08/10 08:23:22;;;;;;;1.80;1.25;;;18.80;99.90;;;;;;4209641;28;20028;-60
2023/08/10 08:25:23;;;;;;;1.52;1.17;;;18.80;99.90;;;;;;4209440;28;20514;-61
2023/08/10 08:27:25;;;;;;;1.25;1.00;;;18.90;99.90;;;;;;4208539;28;20500;-60
2023/08/10 08:29:26;;;;;;;2.00;1.50;;;18.90;99.90;;;;;;4210372;28;20077;-61
2023/08/10 08:31:27;;;;;;;5.00;1.40;;;19.00;99.90;;;;;;4208367;28;20074;-62
2023/08/10 08:33:28;;;;;;;0.93;0.90;;;19.10;99.90;;;;;;4209404;28;20105;-62
2023/08/10 08:35:29;;;;;;;2.55;1.10;;;19.20;99.90;;;;;;4209187;28;20036;-63
2023/08/10 08:37:32;;;;;;;3.83;1.35;;;19.30;99.90;;;;;;4208578;28;20105;-62
2023/08/10 08:39:33;;;;;;;1.42;1.15;;;19.40;99.90;;;;;;4208948;28;20470;-63
2023/08/10 08:41:36;;;;;;;1.27;1.17;;;19.40;99.90;;;;;;4209645;28;20105;-61
2023/08/10 08:43:39;;;;;;;1.85;0.90;;;19.50;99.90;;;;;;4208498;28;20024;-61
2023/08/10 08:45:41;;;;;;;1.60;1.17;;;19.50;99.90;;;;;;4210427;28;20085;-62
2023/08/10 08:47:44;;;;;;;3.08;1.30;;;19.60;99.90;;;;;;4209156;28;20084;-61
2023/08/10 08:49:46;;;;;;;3.60;1.10;;;19.80;99.90;;;;;;4206249;28;20101;-61
2023/08/10 08:51:48;;;;;;;1.65;0.95;;;19.90;99.90;;;;;;4208456;28;20533;-61
2023/08/10 08:53:51;;;;;;;0.50;0.50;;;19.90;99.90;;;;;;4208529;28;20043;-61
2023/08/10 08:55:52;;;;;;;4.10;1.17;;;20.00;99.90;;;;;;4209496;28;20032;-61
2023/08/10 08:57:53;;;;;;;1.58;0.90;;;20.00;99.90;;;;;;4208793;28;20040;-61
2023/08/10 08:59:54;;;;;;;1.98;0.80;;;20.00;99.90;;;;;;4208959;28;20069;-61
2023/08/10 09:01:57;;;;;;;1.65;0.90;;;20.00;99.90;;;;;;4209164;28;20768;-61
2023/08/10 09:03:59;;;;;;;1.02;0.57;;;20.10;99.90;;;;;;4210013;28;20024;-61
2023/08/10 09:06:01;;;;;;;5.07;0.70;;;20.30;99.90;;;;;;4209332;28;20061;-62
2023/08/10 09:08:02;;;;;;;1.20;0.52;;;20.40;99.90;;;;;;4209794;28;20098;-61
2023/08/10 09:10:03;;;;;;;1.25;0.50;;;20.50;99.90;;;;;;4208923;28;20036;-62
2023/08/10 09:12:29;;;;;;;2.53;0.50;;;20.60;99.90;;;;;;4192638;28;20446;-61
2023/08/10 09:14:30;;;;;;;1.90;0.73;;;20.70;99.90;;;;;;4210261;28;20032;-62
2023/08/10 09:16:32;;;;;;;2.05;0.88;;;20.90;99.90;;;;;;4194630;28;20056;-61
2023/08/10 09:18:35;;;;;;;0.82;0.60;;;20.90;99.90;;;;;;4211126;28;20101;-61
2023/08/10 09:20:36;;;;;;;0.50;0.47;;;21.00;99.90;;;;;;4212384;28;20089;-61
2023/08/10 09:22:39;;;;;;;0.80;0.80;;;21.00;99.90;;;;;;4211447;28;20028;-61
2023/08/10 09:24:45;;;;;;;0.85;0.70;;;21.10;99.90;;;;;;4207521;28;20040;-61
2023/08/10 09:26:46;;;;;;;1.17;0.80;;;21.00;99.90;;;;;;4210690;28;20048;-61
2023/08/10 09:28:48;;;;;;;0.95;0.70;;;21.00;99.90;;;;;;4209658;28;20094;-60
2023/08/10 09:30:49;;;;;;;1.58;0.80;;;21.00;99.90;;;;;;4210901;28;20487;-65
2023/08/10 09:32:50;;;;;;;2.05;0.57;;;20.90;99.90;;;;;;4210995;28;20048;-59
2023/08/10 09:34:52;;;;;;;4.40;0.90;;;20.80;99.90;;;;;;4210624;28;20063;-61
2023/08/10 09:36:54;;;;;;;3.70;1.08;;;20.70;99.90;;;;;;4211199;28;20093;-60
2023/08/10 09:38:56;;;;;;;2.60;1.00;;;20.70;99.90;;;;;;4211601;28;20040;-60
2023/08/10 09:41:11;;;;;;;2.92;0.65;;;20.60;99.90;;;;;;4210305;28;20066;-62
2023/08/10 09:43:12;;;;;;;1.25;0.57;;;20.60;99.90;;;;;;4210013;28;20105;-58
2023/08/10 09:45:16;;;;;;;1.70;0.60;;;20.50;99.90;;;;;;4209172;28;20085;-60
2023/08/10 09:47:18;;;;;;;2.42;0.82;;;20.50;99.90;;;;;;4209930;28;20073;-63
2023/08/10 09:49:20;;;;;;;1.15;0.80;;;20.60;99.90;;;;;;4210612;28;20085;-56
2023/08/10 09:51:21;;;;;;;6.90;1.65;;;20.60;99.90;;;;;;4211656;28;20093;-57
2023/08/10 09:53:22;;;;;;;3.17;0.65;;;20.60;99.90;;;;;;4210509;28;20360;-59
2023/08/10 09:55:23;;;;;;;1.80;0.82;;;20.70;99.90;;;;;;4211499;28;20044;-60
2023/08/10 09:57:27;;;;;;;1.85;0.85;;;20.60;99.90;;;;;;4211215;28;20123;-60
2023/08/10 09:59:28;;;;;;;1.15;0.60;;;20.50;99.90;;;;;;4212061;28;20073;-61
2023/08/10 10:01:29;;;;;;;1.65;0.70;;;20.50;99.90;;;;;;4210286;28;20412;-62
2023/08/10 10:03:32;;;;;;;2.38;0.50;;;20.50;99.90;;;;;;4211545;28;20445;-64
2023/08/10 10:05:33;;;;;;;1.65;0.80;;;20.60;99.90;;;;;;4210023;28;20061;-61
2023/08/10 10:07:35;;;;;;;1.73;0.60;;;20.70;99.90;;;;;;4211428;28;20420;-65
2023/08/10 10:09:38;;;;;;;2.15;0.47;;;20.70;99.90;;;;;;4209927;28;20051;-61
2023/08/10 10:11:41;;;;;;;1.73;0.85;;;20.70;99.90;;;;;;4210146;28;20113;-64
2023/08/10 10:13:42;;;;;;;2.10;1.85;;;20.90;99.90;;;;;;4210564;28;20028;-61
2023/08/10 10:15:44;;;;;;;4.15;1.67;;;20.90;99.90;;;;;;4202327;28;20139;-61
2023/08/10 10:17:50;;;;;;;3.80;1.67;;;20.70;99.90;;;;;;4206906;28;20376;-62
2023/08/10 10:19:52;;;;;;;1.85;1.25;;;20.70;99.90;;;;;;4204246;28;20504;-61
2023/08/10 10:21:53;;;;;;;1.98;1.38;;;20.70;99.90;;;;;;4210693;28;20089;-61
2023/08/10 10:24:01;;;;;;;1.25;1.15;;;20.60;99.90;;;;;;4209880;28;20032;-61
2023/08/10 10:26:04;;;;;;;1.88;1.10;;;20.40;99.90;;;;;;4212488;28;20032;-61
2023/08/10 10:28:16;;;;;;;1.60;1.35;;;20.40;99.90;;;;;;4210616;28;20036;-61
2023/08/10 10:30:19;;;;;;;1.83;1.23;;;20.40;99.90;;;;;;4210944;28;20047;-60
2023/08/10 10:32:22;;;;;;;2.70;1.30;;;20.50;99.90;;;;;;4210740;28;20073;-61
2023/08/10 10:34:30;;;;;;;2.55;1.25;;;20.50;99.90;;;;;;4211687;28;20024;-61